sensor_id;sensor_type;location;lat;lon;timestamp;pressure;altitude;pressure_sealevel;temperature;humidity
47556;BME280;33291;46.222;26.460;2022-08-11T00:01:27;96884.13;;;13.10;96.44
47556;BME280;33291;46.222;26.460;2022-08-11T00:06:26;96885.50;;;13.14;96.58
47556;BME280;33291;46.222;26.460;2022-08-11T00:08:53;96890.06;;;13.12;97.06
47556;BME280;33291;46.222;26.460;2022-08-11T00:11:21;96876.13;;;13.11;96.81
47556;BME280;33291;46.222;26.460;2022-08-11T00:13:55;96883.69;;;13.14;96.51
47556;BME280;33291;46.222;26.460;2022-08-11T00:16:23;96868.72;;;13.07;96.47
47556;BME280;33291;46.222;26.460;2022-08-11T00:18:51;96883.69;;;13.14;96.55
47556;BME280;33291;46.222;26.460;2022-08-11T00:21:23;96882.06;;;13.13;96.60
47556;BME280;33291;46.222;26.460;2022-08-11T00:23:58;96883.53;;;13.16;96.56
47556;BME280;33291;46.222;26.460;2022-08-11T00:26:24;96869.84;;;13.04;96.78
47556;BME280;33291;46.222;26.460;2022-08-11T00:28:51;96880.56;;;13.11;96.56
47556;BME280;33291;46.222;26.460;2022-08-11T00:31:35;96879.75;;;13.10;96.51
47556;BME280;33291;46.222;26.460;2022-08-11T00:34:02;96875.31;;;13.11;96.43
47556;BME280;33291;46.222;26.460;2022-08-11T00:36:39;96867.38;;;13.03;97.08
47556;BME280;33291;46.222;26.460;2022-08-11T00:39:09;96869.84;;;13.04;96.89
47556;BME280;33291;46.222;26.460;2022-08-11T00:50:23;96875.63;;;13.08;96.89
47556;BME280;33291;46.222;26.460;2022-08-11T00:59:10;96873.66;;;13.10;96.88
47556;BME280;33291;46.222;26.460;2022-08-11T01:01:45;96873.66;;;13.10;96.94
47556;BME280;33291;46.222;26.460;2022-08-11T02:03:56;96848.88;;;13.14;97.01
47556;BME280;33291;46.222;26.460;2022-08-11T02:15:37;96852.75;;;13.10;97.31
47556;BME280;33291;46.222;26.460;2022-08-11T02:18:15;96846.59;;;13.01;97.26
47556;BME280;33291;46.222;26.460;2022-08-11T02:20:56;96856.34;;;13.09;97.46
47556;BME280;33291;46.222;26.460;2022-08-11T02:23:57;96834.34;;;13.02;97.43
47556;BME280;33291;46.222;26.460;2022-08-11T02:26:31;96846.47;;;13.03;97.37
47556;BME280;33291;46.222;26.460;2022-08-11T02:29:11;96847.28;;;13.03;97.54
47556;BME280;33291;46.222;26.460;2022-08-11T02:31:55;96847.13;;;13.05;97.36
47556;BME280;33291;46.222;26.460;2022-08-11T02:42:28;96841.41;;;12.91;98.06
47556;BME280;33291;46.222;26.460;2022-08-11T02:45:15;96848.69;;;12.97;98.07
47556;BME280;33291;46.222;26.460;2022-08-11T02:48:00;96847.72;;;12.98;97.99
47556;BME280;33291;46.222;26.460;2022-08-11T02:56:39;96856.16;;;12.92;97.54
47556;BME280;33291;46.222;26.460;2022-08-11T02:59:48;96858.06;;;12.90;97.91
47556;BME280;33291;46.222;26.460;2022-08-11T03:02:51;96857.78;;;12.93;98.20
47556;BME280;33291;46.222;26.460;2022-08-11T03:05:30;96848.59;;;12.89;99.25
47556;BME280;33291;46.222;26.460;2022-08-11T03:14:05;96850.91;;;12.92;99.81
47556;BME280;33291;46.222;26.460;2022-08-11T03:16:59;96849.13;;;12.93;99.61
47556;BME280;33291;46.222;26.460;2022-08-11T03:25:24;96845.03;;;13.08;99.54
47556;BME280;33291;46.222;26.460;2022-08-11T03:33:43;96830.63;;;13.04;99.78
47556;BME280;33291;46.222;26.460;2022-08-11T03:42:00;96851.28;;;13.25;99.79
47556;BME280;33291;46.222;26.460;2022-08-11T03:47:17;96822.41;;;13.17;99.74
47556;BME280;33291;46.222;26.460;2022-08-11T03:50:21;96841.59;;;13.36;99.78
47556;BME280;33291;46.222;26.460;2022-08-11T03:58:55;96834.97;;;13.41;99.49
47556;BME280;33291;46.222;26.460;2022-08-11T04:07:22;96838.19;;;13.53;99.67
47556;BME280;33291;46.222;26.460;2022-08-11T04:30:15;96839.22;;;13.78;100.00
47556;BME280;33291;46.222;26.460;2022-08-11T04:32:55;96849.25;;;13.83;100.00
47556;BME280;33291;46.222;26.460;2022-08-11T04:56:05;96847.88;;;14.15;100.00
47556;BME280;33291;46.222;26.460;2022-08-11T05:13:31;96842.13;;;14.37;100.00
47556;BME280;33291;46.222;26.460;2022-08-11T05:16:25;96842.66;;;14.41;99.13
47556;BME280;33291;46.222;26.460;2022-08-11T05:19:16;96843.31;;;14.43;98.81
47556;BME280;33291;46.222;26.460;2022-08-11T05:22:02;96844.81;;;14.46;98.85
47556;BME280;33291;46.222;26.460;2022-08-11T05:25:13;96846.13;;;14.50;98.58
47556;BME280;33291;46.222;26.460;2022-08-11T05:31:00;96846.56;;;14.63;98.06
47556;BME280;33291;46.222;26.460;2022-08-11T05:33:48;96844.31;;;14.68;98.32
47556;BME280;33291;46.222;26.460;2022-08-11T05:39:04;96836.97;;;14.80;98.21
47556;BME280;33291;46.222;26.460;2022-08-11T05:41:50;96843.41;;;14.86;97.46
47556;BME280;33291;46.222;26.460;2022-08-11T05:44:44;96820.94;;;14.83;96.49
47556;BME280;33291;46.222;26.460;2022-08-11T05:47:28;96843.94;;;14.98;96.88
47556;BME280;33291;46.222;26.460;2022-08-11T05:50:14;96828.06;;;15.07;96.49
47556;BME280;33291;46.222;26.460;2022-08-11T05:53:02;96810.38;;;15.09;95.61
47556;BME280;33291;46.222;26.460;2022-08-11T05:55:48;96824.53;;;15.33;95.26
47556;BME280;33291;46.222;26.460;2022-08-11T05:58:35;96826.38;;;15.49;94.47
47556;BME280;33291;46.222;26.460;2022-08-11T06:01:02;96819.34;;;15.58;94.31
47556;BME280;33291;46.222;26.460;2022-08-11T06:03:29;96818.84;;;15.71;93.15
47556;BME280;33291;46.222;26.460;2022-08-11T06:05:56;96810.47;;;15.75;92.47
47556;BME280;33291;46.222;26.460;2022-08-11T06:08:31;96825.47;;;15.91;92.22
47556;BME280;33291;46.222;26.460;2022-08-11T06:11:03;96823.50;;;15.93;92.97
47556;BME280;33291;46.222;26.460;2022-08-11T06:13:30;96823.97;;;15.97;92.81
47556;BME280;33291;46.222;26.460;2022-08-11T06:15:56;96837.13;;;16.05;92.07
47556;BME280;33291;46.222;26.460;2022-08-11T06:18:23;96825.28;;;16.01;92.32
47556;BME280;33291;46.222;26.460;2022-08-11T06:20:56;96834.00;;;16.10;92.73
47556;BME280;33291;46.222;26.460;2022-08-11T06:23:24;96823.50;;;16.10;92.81
47556;BME280;33291;46.222;26.460;2022-08-11T06:25:54;96834.66;;;16.12;92.28
47556;BME280;33291;46.222;26.460;2022-08-11T06:28:35;96832.53;;;16.15;92.48
47556;BME280;33291;46.222;26.460;2022-08-11T06:31:10;96829.72;;;16.17;92.51
47556;BME280;33291;46.222;26.460;2022-08-11T06:33:45;96821.66;;;16.27;89.91
47556;BME280;33291;46.222;26.460;2022-08-11T06:36:26;96814.09;;;16.40;90.01
47556;BME280;33291;46.222;26.460;2022-08-11T06:39:21;96810.78;;;16.46;89.72
47556;BME280;33291;46.222;26.460;2022-08-11T06:42:06;96816.16;;;16.53;89.00
47556;BME280;33291;46.222;26.460;2022-08-11T06:44:39;96819.44;;;16.63;87.89
47556;BME280;33291;46.222;26.460;2022-08-11T06:47:09;96799.72;;;16.67;85.31
47556;BME280;33291;46.222;26.460;2022-08-11T06:49:46;96811.66;;;16.78;84.69
47556;BME280;33291;46.222;26.460;2022-08-11T06:52:34;96810.50;;;16.81;85.89
47556;BME280;33291;46.222;26.460;2022-08-11T06:55:05;96790.63;;;16.70;86.52
47556;BME280;33291;46.222;26.460;2022-08-11T06:57:33;96811.97;;;16.83;87.15
47556;BME280;33291;46.222;26.460;2022-08-11T07:00:18;96807.38;;;16.85;82.39
47556;BME280;33291;46.222;26.460;2022-08-11T07:03:00;96817.25;;;16.92;84.26
47556;BME280;33291;46.222;26.460;2022-08-11T07:08:21;96794.22;;;16.85;85.94
47556;BME280;33291;46.222;26.460;2022-08-11T07:14:07;96817.63;;;17.12;82.91
47556;BME280;33291;46.222;26.460;2022-08-11T07:16:54;96815.78;;;17.20;81.21
47556;BME280;33291;46.222;26.460;2022-08-11T07:19:26;96797.66;;;17.26;79.48
47556;BME280;33291;46.222;26.460;2022-08-11T07:22:12;96809.38;;;17.46;78.63
47556;BME280;33291;46.222;26.460;2022-08-11T07:25:03;96808.91;;;17.66;78.21
47556;BME280;33291;46.222;26.460;2022-08-11T07:27:55;96807.53;;;17.78;76.24
47556;BME280;33291;46.222;26.460;2022-08-11T07:30:41;96804.81;;;17.86;75.27
47556;BME280;33291;46.222;26.460;2022-08-11T07:33:07;96810.03;;;17.94;77.67
47556;BME280;33291;46.222;26.460;2022-08-11T07:35:41;96805.34;;;18.05;77.58
47556;BME280;33291;46.222;26.460;2022-08-11T07:38:13;96812.16;;;18.14;75.63
47556;BME280;33291;46.222;26.460;2022-08-11T07:40:42;96819.47;;;18.27;73.81
47556;BME280;33291;46.222;26.460;2022-08-11T07:43:08;96816.94;;;18.34;72.96
47556;BME280;33291;46.222;26.460;2022-08-11T07:45:41;96801.09;;;18.34;69.03
47556;BME280;33291;46.222;26.460;2022-08-11T07:48:25;96798.59;;;18.40;69.67
47556;BME280;33291;46.222;26.460;2022-08-11T07:51:10;96808.22;;;18.48;72.21
47556;BME280;33291;46.222;26.460;2022-08-11T07:53:55;96791.22;;;18.51;71.62
47556;BME280;33291;46.222;26.460;2022-08-11T07:56:20;96809.41;;;18.60;70.52
47556;BME280;33291;46.222;26.460;2022-08-11T07:58:47;96814.97;;;18.65;67.93
47556;BME280;33291;46.222;26.460;2022-08-11T08:01:31;96826.25;;;18.59;67.42
47556;BME280;33291;46.222;26.460;2022-08-11T08:04:17;96811.50;;;18.50;67.19
47556;BME280;33291;46.222;26.460;2022-08-11T08:07:04;96818.06;;;18.54;67.87
47556;BME280;33291;46.222;26.460;2022-08-11T08:09:49;96812.50;;;18.64;68.38
47556;BME280;33291;46.222;26.460;2022-08-11T08:12:34;96799.41;;;18.71;68.86
47556;BME280;33291;46.222;26.460;2022-08-11T08:15:20;96803.59;;;18.80;68.05
47556;BME280;33291;46.222;26.460;2022-08-11T08:18:06;96797.06;;;18.91;66.87
47556;BME280;33291;46.222;26.460;2022-08-11T08:20:44;96798.47;;;19.08;65.60
47556;BME280;33291;46.222;26.460;2022-08-11T08:23:10;96794.66;;;19.11;66.06
47556;BME280;33291;46.222;26.460;2022-08-11T08:25:41;96800.72;;;19.26;65.49
47556;BME280;33291;46.222;26.460;2022-08-11T08:28:14;96797.59;;;19.38;64.44
47556;BME280;33291;46.222;26.460;2022-08-11T08:30:41;96789.09;;;19.42;64.41
47556;BME280;33291;46.222;26.460;2022-08-11T08:33:33;96791.47;;;19.37;63.26
47556;BME280;33291;46.222;26.460;2022-08-11T08:36:00;96796.84;;;19.44;64.45
47556;BME280;33291;46.222;26.460;2022-08-11T08:41:03;96788.88;;;19.59;64.27
47556;BME280;33291;46.222;26.460;2022-08-11T08:43:30;96770.09;;;19.53;62.99
47556;BME280;33291;46.222;26.460;2022-08-11T08:45:57;96776.31;;;19.67;61.80
47556;BME280;33291;46.222;26.460;2022-08-11T08:48:24;96783.97;;;19.77;62.68
47556;BME280;33291;46.222;26.460;2022-08-11T08:50:56;96783.06;;;19.92;63.31
47556;BME280;33291;46.222;26.460;2022-08-11T08:53:48;96776.69;;;20.08;62.02
47556;BME280;33291;46.222;26.460;2022-08-11T08:56:14;96779.63;;;20.19;61.83
47556;BME280;33291;46.222;26.460;2022-08-11T08:58:41;96779.91;;;20.31;59.88
47556;BME280;33291;46.222;26.460;2022-08-11T09:01:12;96780.16;;;20.36;57.57
47556;BME280;33291;46.222;26.460;2022-08-11T09:03:39;96782.09;;;20.21;58.19
47556;BME280;33291;46.222;26.460;2022-08-11T09:06:05;96777.94;;;20.12;58.88
47556;BME280;33291;46.222;26.460;2022-08-11T09:08:32;96778.50;;;20.07;58.89
47556;BME280;33291;46.222;26.460;2022-08-11T09:10:58;96771.84;;;20.11;59.43
47556;BME280;33291;46.222;26.460;2022-08-11T09:13:45;96761.94;;;20.20;59.86
47556;BME280;33291;46.222;26.460;2022-08-11T09:16:11;96770.19;;;20.38;60.64
47556;BME280;33291;46.222;26.460;2022-08-11T09:18:39;96766.22;;;20.56;59.51
47556;BME280;33291;46.222;26.460;2022-08-11T09:21:11;96749.72;;;20.54;58.49
47556;BME280;33291;46.222;26.460;2022-08-11T09:23:39;96767.03;;;20.56;59.36
47556;BME280;33291;46.222;26.460;2022-08-11T09:26:23;96760.53;;;20.59;59.18
47556;BME280;33291;46.222;26.460;2022-08-11T09:29:09;96776.66;;;20.64;58.34
47556;BME280;33291;46.222;26.460;2022-08-11T09:31:36;96768.47;;;20.59;58.48
47556;BME280;33291;46.222;26.460;2022-08-11T09:34:02;96768.09;;;20.62;58.85
47556;BME280;33291;46.222;26.460;2022-08-11T09:36:28;96769.41;;;20.80;59.09
47556;BME280;33291;46.222;26.460;2022-08-11T09:39:13;96762.72;;;20.84;58.57
47556;BME280;33291;46.222;26.460;2022-08-11T09:42:03;96749.69;;;20.82;57.48
47556;BME280;33291;46.222;26.460;2022-08-11T09:44:30;96757.69;;;20.96;56.56
47556;BME280;33291;46.222;26.460;2022-08-11T09:47:19;96753.97;;;20.90;56.92
47556;BME280;33291;46.222;26.460;2022-08-11T09:49:45;96762.53;;;20.92;56.77
47556;BME280;33291;46.222;26.460;2022-08-11T09:52:14;96762.91;;;20.82;56.20
47556;BME280;33291;46.222;26.460;2022-08-11T09:54:45;96768.41;;;20.81;55.30
47556;BME280;33291;46.222;26.460;2022-08-11T09:57:12;96774.91;;;20.78;56.23
47556;BME280;33291;46.222;26.460;2022-08-11T09:59:56;96771.88;;;20.81;55.87
47556;BME280;33291;46.222;26.460;2022-08-11T10:02:28;96767.00;;;20.85;56.22
47556;BME280;33291;46.222;26.460;2022-08-11T10:04:57;96764.56;;;20.83;56.07
47556;BME280;33291;46.222;26.460;2022-08-11T10:07:46;96762.13;;;20.88;53.69
47556;BME280;33291;46.222;26.460;2022-08-11T10:10:16;96767.03;;;20.98;54.86
47556;BME280;33291;46.222;26.460;2022-08-11T10:12:50;96774.19;;;21.04;55.61
47556;BME280;33291;46.222;26.460;2022-08-11T10:15:18;96762.19;;;21.08;55.20
47556;BME280;33291;46.222;26.460;2022-08-11T10:18:06;96765.47;;;21.10;56.61
47556;BME280;33291;46.222;26.460;2022-08-11T10:20:54;96776.28;;;21.09;56.53
47556;BME280;33291;46.222;26.460;2022-08-11T10:23:22;96750.75;;;21.01;56.56
47556;BME280;33291;46.222;26.460;2022-08-11T10:26:07;96761.19;;;21.09;55.83
47556;BME280;33291;46.222;26.460;2022-08-11T10:28:52;96759.13;;;21.11;56.01
47556;BME280;33291;46.222;26.460;2022-08-11T10:31:19;96748.78;;;21.17;54.30
47556;BME280;33291;46.222;26.460;2022-08-11T10:34:04;96752.44;;;21.16;54.67
47556;BME280;33291;46.222;26.460;2022-08-11T10:36:32;96773.22;;;21.25;53.17
47556;BME280;33291;46.222;26.460;2022-08-11T10:39:00;96766.28;;;21.18;52.13
47556;BME280;33291;46.222;26.460;2022-08-11T10:41:27;96759.78;;;21.14;53.10
47556;BME280;33291;46.222;26.460;2022-08-11T10:44:11;96750.34;;;21.04;54.17
47556;BME280;33291;46.222;26.460;2022-08-11T10:46:38;96766.28;;;21.11;54.18
47556;BME280;33291;46.222;26.460;2022-08-11T10:49:24;96763.44;;;21.12;54.42
47556;BME280;33291;46.222;26.460;2022-08-11T10:51:52;96757.34;;;21.19;55.20
47556;BME280;33291;46.222;26.460;2022-08-11T10:54:39;96770.59;;;21.19;53.35
47556;BME280;33291;46.222;26.460;2022-08-11T10:57:24;96761.03;;;21.24;51.48
47556;BME280;33291;46.222;26.460;2022-08-11T11:00:09;96762.19;;;21.08;51.63
47556;BME280;33291;46.222;26.460;2022-08-11T11:02:42;96760.13;;;21.04;52.27
47556;BME280;33291;46.222;26.460;2022-08-11T11:05:25;96758.16;;;21.19;53.03
47556;BME280;33291;46.222;26.460;2022-08-11T11:08:11;96768.97;;;21.31;51.61
47556;BME280;33291;46.222;26.460;2022-08-11T11:10:57;96767.81;;;21.47;50.72
47556;BME280;33291;46.222;26.460;2022-08-11T11:13:25;96737.03;;;21.53;51.02
47556;BME280;33291;46.222;26.460;2022-08-11T11:16:11;96730.13;;;21.65;51.90
47556;BME280;33291;46.222;26.460;2022-08-11T11:18:59;96727.25;;;21.60;51.05
47556;BME280;33291;46.222;26.460;2022-08-11T11:21:28;96744.41;;;21.64;51.16
47556;BME280;33291;46.222;26.460;2022-08-11T11:27:12;96749.69;;;21.91;49.88
47556;BME280;33291;46.222;26.460;2022-08-11T11:32:36;96750.09;;;22.01;50.43
47556;BME280;33291;46.222;26.460;2022-08-11T11:37:43;96736.19;;;22.26;48.12
47556;BME280;33291;46.222;26.460;2022-08-11T11:40:11;96746.03;;;22.32;47.92
47556;BME280;33291;46.222;26.460;2022-08-11T11:42:39;96735.22;;;22.33;47.54
47556;BME280;33291;46.222;26.460;2022-08-11T11:45:06;96736.59;;;22.23;48.99
47556;BME280;33291;46.222;26.460;2022-08-11T11:47:33;96749.69;;;22.17;49.73
47556;BME280;33291;46.222;26.460;2022-08-11T11:50:01;96740.50;;;22.00;49.32
47556;BME280;33291;46.222;26.460;2022-08-11T11:52:28;96731.75;;;21.79;51.21
47556;BME280;33291;46.222;26.460;2022-08-11T11:54:55;96737.47;;;21.76;50.93
47556;BME280;33291;46.222;26.460;2022-08-11T11:57:22;96729.31;;;21.64;50.93
47556;BME280;33291;46.222;26.460;2022-08-11T12:00:10;96743.78;;;21.69;51.12
47556;BME280;33291;46.222;26.460;2022-08-11T12:03:00;96747.25;;;21.62;50.26
47556;BME280;33291;46.222;26.460;2022-08-11T12:05:27;96748.28;;;21.55;51.56
47556;BME280;33291;46.222;26.460;2022-08-11T12:07:53;96742.34;;;21.53;51.77
47556;BME280;33291;46.222;26.460;2022-08-11T12:13:08;96743.13;;;21.46;51.87
47556;BME280;33291;46.222;26.460;2022-08-11T12:15:53;96739.09;;;21.51;52.77
47556;BME280;33291;46.222;26.460;2022-08-11T12:18:19;96738.28;;;21.57;54.07
47556;BME280;33291;46.222;26.460;2022-08-11T12:20:45;96717.47;;;21.54;53.71
47556;BME280;33291;46.222;26.460;2022-08-11T12:23:11;96738.09;;;21.72;53.83
47556;BME280;33291;46.222;26.460;2022-08-11T12:25:57;96729.72;;;21.75;50.60
47556;BME280;33291;46.222;26.460;2022-08-11T12:28:43;96734.41;;;21.79;51.31
47556;BME280;33291;46.222;26.460;2022-08-11T12:31:09;96730.34;;;21.83;51.34
47556;BME280;33291;46.222;26.460;2022-08-11T12:33:38;96727.25;;;21.93;51.37
47556;BME280;33291;46.222;26.460;2022-08-11T12:36:09;96722.56;;;22.02;50.79
47556;BME280;33291;46.222;26.460;2022-08-11T12:38:43;96704.00;;;22.02;49.82
47556;BME280;33291;46.222;26.460;2022-08-11T12:41:11;96728.03;;;22.21;51.86
47556;BME280;33291;46.222;26.460;2022-08-11T12:44:14;96722.13;;;22.39;48.53
47556;BME280;33291;46.222;26.460;2022-08-11T12:47:00;96708.66;;;22.40;48.79
47556;BME280;33291;46.222;26.460;2022-08-11T12:49:27;96714.97;;;22.46;49.36
47556;BME280;33291;46.222;26.460;2022-08-11T12:52:20;96722.31;;;22.50;47.96
47556;BME280;33291;46.222;26.460;2022-08-11T12:55:20;96726.63;;;22.38;47.98
47556;BME280;33291;46.222;26.460;2022-08-11T12:58:08;96729.63;;;22.48;48.08
47556;BME280;33291;46.222;26.460;2022-08-11T13:00:44;96723.50;;;22.54;47.85
47556;BME280;33291;46.222;26.460;2022-08-11T13:03:31;96717.97;;;22.63;47.25
47556;BME280;33291;46.222;26.460;2022-08-11T13:06:17;96715.06;;;22.71;48.05
47556;BME280;33291;46.222;26.460;2022-08-11T13:08:44;96711.97;;;22.74;46.53
47556;BME280;33291;46.222;26.460;2022-08-11T13:11:11;96710.72;;;22.83;46.01
47556;BME280;33291;46.222;26.460;2022-08-11T13:13:56;96709.44;;;22.93;47.38
47556;BME280;33291;46.222;26.460;2022-08-11T13:16:25;96694.72;;;22.97;45.75
47556;BME280;33291;46.222;26.460;2022-08-11T13:18:52;96701.47;;;22.99;45.33
47556;BME280;33291;46.222;26.460;2022-08-11T13:21:18;96712.25;;;23.11;45.63
47556;BME280;33291;46.222;26.460;2022-08-11T13:23:45;96702.59;;;23.17;46.54
47556;BME280;33291;46.222;26.460;2022-08-11T13:26:11;96700.81;;;23.11;46.03
47556;BME280;33291;46.222;26.460;2022-08-11T13:28:38;96697.56;;;23.02;46.01
47556;BME280;33291;46.222;26.460;2022-08-11T13:31:05;96712.53;;;22.89;46.90
47556;BME280;33291;46.222;26.460;2022-08-11T13:33:41;96703.38;;;22.79;46.51
47556;BME280;33291;46.222;26.460;2022-08-11T13:36:08;96699.13;;;22.71;47.42
47556;BME280;33291;46.222;26.460;2022-08-11T13:38:35;96697.53;;;22.70;47.44
47556;BME280;33291;46.222;26.460;2022-08-11T13:41:01;96682.56;;;22.76;47.26
47556;BME280;33291;46.222;26.460;2022-08-11T13:43:47;96680.88;;;22.88;48.68
47556;BME280;33291;46.222;26.460;2022-08-11T13:46:13;96676.97;;;22.97;47.87
47556;BME280;33291;46.222;26.460;2022-08-11T13:48:44;96670.78;;;23.10;45.99
47556;BME280;33291;46.222;26.460;2022-08-11T13:51:11;96661.16;;;23.09;46.06
47556;BME280;33291;46.222;26.460;2022-08-11T13:56:37;96664.00;;;23.07;45.96
47556;BME280;33291;46.222;26.460;2022-08-11T13:59:05;96668.34;;;23.02;47.13
47556;BME280;33291;46.222;26.460;2022-08-11T14:01:36;96656.47;;;23.04;46.85
47556;BME280;33291;46.222;26.460;2022-08-11T14:04:16;96663.03;;;23.02;46.82
47556;BME280;33291;46.222;26.460;2022-08-11T14:06:50;96657.50;;;23.03;46.55
47556;BME280;33291;46.222;26.460;2022-08-11T14:09:24;96664.81;;;23.15;47.09
47556;BME280;33291;46.222;26.460;2022-08-11T14:11:49;96667.81;;;23.25;45.24
47556;BME280;33291;46.222;26.460;2022-08-11T14:14:36;96669.66;;;23.24;44.31
47556;BME280;33291;46.222;26.460;2022-08-11T14:17:05;96649.31;;;23.05;43.68
47556;BME280;33291;46.222;26.460;2022-08-11T14:19:41;96665.25;;;23.12;44.51
47556;BME280;33291;46.222;26.460;2022-08-11T14:22:09;96657.28;;;23.12;43.69
47556;BME280;33291;46.222;26.460;2022-08-11T14:24:39;96655.59;;;23.17;44.04
47556;BME280;33291;46.222;26.460;2022-08-11T14:27:08;96656.19;;;23.19;43.99
47556;BME280;33291;46.222;26.460;2022-08-11T14:29:35;96654.13;;;23.21;44.72
47556;BME280;33291;46.222;26.460;2022-08-11T14:32:05;96655.34;;;23.26;45.14
47556;BME280;33291;46.222;26.460;2022-08-11T14:34:33;96655.72;;;23.29;44.59
47556;BME280;33291;46.222;26.460;2022-08-11T14:37:01;96660.41;;;23.34;44.04
47556;BME280;33291;46.222;26.460;2022-08-11T14:39:31;96672.38;;;23.43;43.52
47556;BME280;33291;46.222;26.460;2022-08-11T14:42:05;96671.53;;;23.49;42.16
47556;BME280;33291;46.222;26.460;2022-08-11T14:44:53;96672.75;;;23.47;42.58
47556;BME280;33291;46.222;26.460;2022-08-11T14:47:41;96661.31;;;23.46;41.86
47556;BME280;33291;46.222;26.460;2022-08-11T14:50:11;96659.84;;;23.50;43.06
47556;BME280;33291;46.222;26.460;2022-08-11T14:52:48;96661.44;;;23.58;43.79
47556;BME280;33291;46.222;26.460;2022-08-11T14:55:15;96665.91;;;23.57;42.96
47556;BME280;33291;46.222;26.460;2022-08-11T14:58:00;96659.19;;;23.55;42.40
47556;BME280;33291;46.222;26.460;2022-08-11T15:00:26;96665.69;;;23.59;43.58
47556;BME280;33291;46.222;26.460;2022-08-11T15:02:52;96667.56;;;23.58;43.10
47556;BME280;33291;46.222;26.460;2022-08-11T15:05:43;96675.56;;;23.52;43.22
47556;BME280;33291;46.222;26.460;2022-08-11T15:08:09;96664.22;;;23.38;43.81
47556;BME280;33291;46.222;26.460;2022-08-11T15:10:37;96674.88;;;23.38;44.21
47556;BME280;33291;46.222;26.460;2022-08-11T15:13:03;96665.06;;;23.38;43.76
47556;BME280;33291;46.222;26.460;2022-08-11T15:15:28;96657.31;;;23.37;43.91
47556;BME280;33291;46.222;26.460;2022-08-11T15:18:16;96657.63;;;23.47;44.14
47556;BME280;33291;46.222;26.460;2022-08-11T15:20:43;96646.19;;;23.47;44.77
47556;BME280;33291;46.222;26.460;2022-08-11T15:23:28;96652.72;;;23.44;47.19
47556;BME280;33291;46.222;26.460;2022-08-11T15:26:16;96645.03;;;23.36;44.07
47556;BME280;33291;46.222;26.460;2022-08-11T15:28:48;96653.59;;;23.38;43.97
47556;BME280;33291;46.222;26.460;2022-08-11T15:31:33;96651.66;;;23.27;44.86
47556;BME280;33291;46.222;26.460;2022-08-11T15:34:21;96649.03;;;23.20;44.88
47556;BME280;33291;46.222;26.460;2022-08-11T15:37:10;96658.69;;;23.07;44.75
47556;BME280;33291;46.222;26.460;2022-08-11T15:45:51;96654.34;;;22.81;45.80
47556;BME280;33291;46.222;26.460;2022-08-11T15:48:26;96628.13;;;22.60;45.45
47556;BME280;33291;46.222;26.460;2022-08-11T15:50:56;96651.13;;;22.73;45.93
47556;BME280;33291;46.222;26.460;2022-08-11T15:53:32;96661.56;;;22.67;46.05
47556;BME280;33291;46.222;26.460;2022-08-11T15:55:59;96654.06;;;22.58;46.31
47556;BME280;33291;46.222;26.460;2022-08-11T15:58:30;96651.22;;;22.52;46.99
47556;BME280;33291;46.222;26.460;2022-08-11T16:01:26;96645.13;;;22.45;47.68
47556;BME280;33291;46.222;26.460;2022-08-11T16:04:17;96646.38;;;22.43;47.12
47556;BME280;33291;46.222;26.460;2022-08-11T16:06:58;96644.78;;;22.35;46.10
47556;BME280;33291;46.222;26.460;2022-08-11T16:09:50;96645.19;;;22.32;47.26
47556;BME280;33291;46.222;26.460;2022-08-11T16:12:17;96647.22;;;22.23;47.47
47556;BME280;33291;46.222;26.460;2022-08-11T16:14:48;96649.69;;;22.18;49.08
47556;BME280;33291;46.222;26.460;2022-08-11T16:17:44;96656.44;;;22.07;50.99
47556;BME280;33291;46.222;26.460;2022-08-11T16:20:12;96658.28;;;22.00;51.63
47556;BME280;33291;46.222;26.460;2022-08-11T16:22:39;96651.38;;;21.92;51.65
47556;BME280;33291;46.222;26.460;2022-08-11T16:25:13;96644.47;;;21.78;50.93
47556;BME280;33291;46.222;26.460;2022-08-11T16:27:46;96635.09;;;21.62;51.58
47556;BME280;33291;46.222;26.460;2022-08-11T16:30:14;96665.47;;;21.66;52.17
47556;BME280;33291;46.222;26.460;2022-08-11T16:32:42;96667.75;;;21.62;52.94
47556;BME280;33291;46.222;26.460;2022-08-11T16:35:14;96659.97;;;21.54;52.93
47556;BME280;33291;46.222;26.460;2022-08-11T16:38:01;96669.19;;;21.52;53.60
47556;BME280;33291;46.222;26.460;2022-08-11T16:40:59;96664.84;;;21.37;54.81
47556;BME280;33291;46.222;26.460;2022-08-11T16:43:28;96678.31;;;21.29;56.39
47556;BME280;33291;46.222;26.460;2022-08-11T16:46:15;96685.22;;;21.17;57.74
47556;BME280;33291;46.222;26.460;2022-08-11T16:49:04;96683.53;;;21.02;58.22
47556;BME280;33291;46.222;26.460;2022-08-11T16:51:31;96679.66;;;20.91;58.39
47556;BME280;33291;46.222;26.460;2022-08-11T16:53:57;96665.13;;;20.74;58.22
47556;BME280;33291;46.222;26.460;2022-08-11T16:56:34;96679.59;;;20.71;58.60
47556;BME280;33291;46.222;26.460;2022-08-11T16:59:05;96675.22;;;20.57;58.64
47556;BME280;33291;46.222;26.460;2022-08-11T17:01:40;96687.66;;;20.56;58.63
47556;BME280;33291;46.222;26.460;2022-08-11T17:07:24;96689.81;;;20.39;59.36
47556;BME280;33291;46.222;26.460;2022-08-11T17:13:08;96695.59;;;20.15;60.16
47556;BME280;33291;46.222;26.460;2022-08-11T17:15:37;96704.91;;;20.11;59.77
47556;BME280;33291;46.222;26.460;2022-08-11T17:18:24;96704.28;;;20.09;60.34
47556;BME280;33291;46.222;26.460;2022-08-11T17:21:14;96704.81;;;19.97;61.14
47556;BME280;33291;46.222;26.460;2022-08-11T17:23:43;96713.72;;;19.90;61.81
47556;BME280;33291;46.222;26.460;2022-08-11T17:26:17;96706.13;;;19.80;62.12
47556;BME280;33291;46.222;26.460;2022-08-11T17:28:44;96701.09;;;19.63;62.54
47556;BME280;33291;46.222;26.460;2022-08-11T17:31:12;96709.16;;;19.55;63.16